Flight Track Log - Related Links

Times and Time Zones

All times are in EDT time to prevent confusion due to time zone crossing. See the RPA1631 flight status page for this flight to view local times or setup timezone preferences in your user account.

Time Position Orientation Groundspeed Altitude Reporting Facility
EDT Latitude Longitude Course Direction KTS MPH feet Rate Location/Type
Tue 09:01:53 AM 43.1861 -89.3908 270° West 197 227 2,600  Level Chicago Center
Tue 09:02:55 AM 43.1858 -89.4917 270° West 267 307 4,200 2,565 Climbing Chicago Center
Tue 09:03:57 AM 43.1864 -89.5961 270° West 274 315 7,900 3,097 Climbing Chicago Center
Tue 09:04:59 AM 43.1844 -89.7169 269° West 271 312 10,600 2,304 Climbing Chicago Center
Tue 09:06:02 AM 43.1825 -89.8331 269° West 300 345 12,700 2,016 Climbing Chicago Center
Tue 09:07:00 AM 43.1333 -90.1910 270° West  Level FlightAware Approximate
Tue 09:07:04 AM 43.1956 -89.9500 279° West 313 360 14,800  Level Chicago Center
Tue 09:08:06 AM 43.2211 -90.0661 287° West 319 367 16,700 1,742 Climbing Chicago Center
Tue 09:09:08 AM 43.2483 -90.1883 287° West 332 382 18,400 1,597 Climbing Chicago Center
Tue 09:10:10 AM 43.2736 -90.3131 286° West 345 397 20,000 774 Climbing Chicago Center
Tue 09:11:12 AM 43.3053 -90.4667 286° West 352 405 20,000  Level Chicago Center
Tue 09:12:14 AM 43.3319 -90.5939 286° West 352 405 20,000 97 Level Chicago Center
Tue 09:13:16 AM 43.3586 -90.7222 286° West 353 406 20,200 484 Climbing Chicago Center
Tue 09:14:18 AM 43.3853 -90.8517 286° West 356 410 21,000 968 Climbing Chicago Center
Tue 09:15:20 AM 43.4169 -91.0103 285° West 361 415 22,200 1,258 Climbing Chicago Center
Tue 09:16:22 AM 43.4428 -91.1428 285° West 363 418 23,600 1,306 Climbing Chicago Center
Tue 09:17:24 AM 43.4589 -91.2856 279° West 379 436 24,900 1,161 Climbing Chicago Center
Tue 09:18:26 AM 43.4742 -91.4292 278° West 383 441 26,000 1,161 Climbing Chicago Center
Tue 09:19:28 AM 43.4886 -91.5767 278° West 392 451 27,300 968 Climbing Chicago Center
Tue 09:20:30 AM 43.5058 -91.7572 278° West 401 461 28,000 333 Climbing Chicago Center
Tue 09:21:34 AM 43.5203 -91.9061 278° West 399 459 28,000 369 Level Chicago Center
Tue 09:22:40 AM 43.5378 -92.0875 278° West 400 460 28,800 729 Climbing Minneapolis Center
Tue 09:23:54 AM 43.5472 -92.2411 275° West 408 470 29,700 926 Climbing Minneapolis Center
Tue 09:24:56 AM 43.5231 -92.4272 260° West 416 479 30,900 871 Climbing Minneapolis Center
Tue 09:25:58 AM 43.5011 -92.5828 259° West 419 482 31,500 484 Climbing Minneapolis Center
Tue 09:27:00 AM 43.4789 -92.7392 259° West 420 483 31,900 484 Climbing Minneapolis Center
Tue 09:28:02 AM 43.4533 -92.9228 259° West 414 476 32,500 537 Climbing Minneapolis Center
Tue 09:29:03 AM 43.4308 -93.0711 258° West 405 466 33,000 488 Climbing Minneapolis Center
Tue 09:30:05 AM 43.4111 -93.2136 259° West 387 445 33,500 484 Climbing Minneapolis Center
Tue 09:31:07 AM 43.3911 -93.3547 259° West 382 440 34,000 242 Climbing Minneapolis Center
Tue 09:32:09 AM 43.3697 -93.4942 258° West 378 435 34,000  Level Minneapolis Center
Tue 09:33:11 AM 43.3450 -93.6675 259° West 386 444 34,000  Level Minneapolis Center
Tue 09:34:12 AM 43.3233 -93.8086 258° West 385 443 34,000  Level Minneapolis Center
Tue 09:35:14 AM 43.3022 -93.9489 258° West 381 438 34,000  Level Minneapolis Center
Tue 09:36:16 AM 43.2806 -94.0881 258° West 378 435 34,000  Level Minneapolis Center
Tue 09:37:18 AM 43.2594 -94.2308 259° West 382 440 34,000  Level Minneapolis Center
Tue 09:38:20 AM 43.2314 -94.4017 257° West 381 438 34,000  Level Minneapolis Center
Tue 09:39:22 AM 43.2081 -94.5439 257° West 382 440 34,000  Level Minneapolis Center
Tue 09:40:24 AM 43.1881 -94.6797 259° West 369 425 34,000  Level Minneapolis Center
Tue 09:41:26 AM 43.1656 -94.8178 257° West 369 425 34,000  Level Minneapolis Center
Tue 09:42:28 AM 43.1436 -94.9544 258° West 369 425 34,000  Level Minneapolis Center
Tue 09:43:30 AM 43.1208 -95.0931 257° West 371 427 34,000  Level Minneapolis Center
Tue 09:44:32 AM 43.0936 -95.2581 257° West 370 426 34,000  Level Minneapolis Center
Tue 09:45:34 AM 43.0708 -95.3944 257° West 369 425 34,000  Level Minneapolis Center
Tue 09:46:36 AM 43.0481 -95.5303 257° West 368 423 34,000  Level Minneapolis Center
Tue 09:47:38 AM 43.0256 -95.6644 257° West 363 418 34,000  Level Minneapolis Center
Tue 09:48:40 AM 43.0031 -95.8003 257° West 366 421 34,000  Level Minneapolis Center
Tue 09:49:42 AM 42.9797 -95.9356 257° West 367 422 34,000  Level Minneapolis Center
Tue 09:50:43 AM 42.9567 -96.0725 257° West 368 423 34,000  Level Minneapolis Center
Tue 09:51:45 AM 42.9281 -96.2347 257° West 367 422 34,000  Level Minneapolis Center
Tue 09:52:47 AM 42.9044 -96.3708 257° West 368 423 34,000  Level Minneapolis Center
Tue 09:53:49 AM 42.8797 -96.5081 256° West 373 429 34,000  Level Minneapolis Center
Tue 09:54:51 AM 42.8550 -96.6442 256° West 372 428 34,000  Level Minneapolis Center
Tue 09:55:53 AM 42.8300 -96.7828 256° West 375 432 34,000  Level Minneapolis Center
Tue 09:56:55 AM 42.8056 -96.9206 256° West 374 430 34,000  Level Minneapolis Center
Tue 09:57:57 AM 42.7814 -97.0581 257° West 374 430 34,000  Level Minneapolis Center
Tue 09:58:59 AM 42.7511 -97.2233 256° West 375 432 34,000  Level Minneapolis Center
Tue 10:00:00 AM 42.7253 -97.3617 256° West 378 435 34,000 390 Level Minneapolis Center
Tue 10:01:02 AM 42.6983 -97.5000 255° West 378 435 34,800 726 Climbing Minneapolis Center
Tue 10:02:04 AM 42.6731 -97.6383 256° West 378 435 35,500 581 Climbing Minneapolis Center
Tue 10:03:06 AM 42.6472 -97.7775 256° West 375 432 36,000 242 Climbing Minneapolis Center
Tue 10:04:08 AM 42.6189 -97.9267 256° West 380 437 36,000  Level Minneapolis Center
Tue 10:05:10 AM 42.5919 -98.0650 255° West 380 437 36,000  Level Minneapolis Center
Tue 10:06:12 AM 42.5650 -98.2050 255° West 384 442 36,000  Level Minneapolis Center
Tue 10:07:14 AM 42.5378 -98.3475 256° West 390 449 36,000  Level Minneapolis Center
Tue 10:08:16 AM 42.5039 -98.5192 255° West 393 452 36,000  Level Minneapolis Center
Tue 10:09:17 AM 42.4750 -98.6625 255° West 395 455 36,000  Level Minneapolis Center
Tue 10:10:19 AM 42.4206 -98.7967 241° Southwest 407 468 36,000  Level Minneapolis Center
Tue 10:11:21 AM 42.3628 -98.9278 239° Southwest 408 470 36,000  Level Minneapolis Center
Tue 10:12:23 AM 42.3047 -99.0589 239° Southwest 408 470 36,000  Level Minneapolis Center
Tue 10:13:25 AM 42.2456 -99.1894 239° Southwest 409 471 36,000  Level Minneapolis Center
Tue 10:14:27 AM 42.1858 -99.3211 239° Southwest 412 474 36,000  Level Minneapolis Center
Tue 10:15:02 AM 42.1494 -99.3994 238° Southwest 410 472 36,000  Level Denver Center
Tue 10:16:04 AM 42.0783 -99.5556 239° Southwest 409 471 36,000  Level Denver Center
Tue 10:17:05 AM 42.0183 -99.6839 238° Southwest 407 468 36,000  Level Denver Center
Tue 10:18:07 AM 41.9628 -99.8069 239° Southwest 407 468 36,000  Level Denver Center
Tue 10:19:08 AM 41.8964 -99.9517 238° Southwest 407 468 36,000  Level Denver Center
Tue 10:20:10 AM 41.8386 -100.0744 238° Southwest 407 468 36,000  Level Denver Center
Tue 10:21:12 AM 41.7717 -100.2169 238° Southwest 406 467 36,000  Level Denver Center
Tue 10:22:13 AM 41.7136 -100.3408 238° Southwest 410 472 36,000  Level Denver Center
Tue 10:23:15 AM 41.6558 -100.4633 238° Southwest 408 470 36,000  Level Denver Center
Tue 10:24:17 AM 41.5883 -100.6067 238° Southwest 410 472 36,000  Level Denver Center
Tue 10:25:18 AM 41.5308 -100.7292 238° Southwest 406 467 36,000  Level Denver Center
Tue 10:26:20 AM 41.4825 -100.8842 247° West 405 466 36,000  Level Denver Center
Tue 10:27:22 AM 41.4408 -101.0183 248° West 410 472 36,000  Level Denver Center
Tue 10:28:24 AM 41.3939 -101.1742 248° West 409 471 36,000  Level Denver Center
Tue 10:29:25 AM 41.3528 -101.3083 248° West 409 471 36,000  Level Denver Center
Tue 10:30:27 AM 41.3058 -101.4658 248° West 411 473 36,000  Level Denver Center
Tue 10:31:29 AM 41.2636 -101.6003 247° West 413 475 36,000  Level Denver Center
Tue 10:32:31 AM 41.2144 -101.7572 247° West 414 476 36,000  Level Denver Center
Tue 10:33:32 AM 41.1781 -101.8706 247° West 417 480 36,000  Level Denver Center
Tue 10:34:35 AM 41.1283 -102.0308 248° West 421 484 36,000  Level Denver Center
Tue 10:35:37 AM 41.0817 -102.1867 248° West 411 473 36,000  Level Denver Center
Tue 10:36:38 AM 41.0389 -102.3211 247° West 413 475 36,000  Level Denver Center
Tue 10:37:40 AM 40.9800 -102.4736 243° Southwest 415 478 36,000  Level Denver Center
Tue 10:38:42 AM 40.9286 -102.6036 242° Southwest 418 481 36,000  Level Denver Center
Tue 10:39:44 AM 40.8675 -102.7553 242° Southwest 419 482 36,000 -387 Level Denver Center
Tue 10:40:46 AM 40.8156 -102.8842 242° Southwest 417 480 35,200 -1,536 Descending Denver Center
Tue 10:41:49 AM 40.7583 -103.0250 242° Southwest 417 480 32,800 -2,256 Descending Denver Center
Tue 10:42:51 AM 40.7008 -103.1667 242° Southwest 425 489 30,500 -2,290 Descending Denver Center
Tue 10:44:00 AM 40.6294 -103.2977 246° West  Level Estimated
Tue 10:44:55 AM 40.5806 -103.4628 246° West 421 484 25,700  Level Denver Center
Tue 10:45:57 AM 40.5269 -103.5908 241° Southwest 418 481 23,500 -2,226 Descending Denver Center
Tue 10:46:59 AM 40.4667 -103.7378 242° Southwest 408 470 21,100 -2,177 Descending Denver Center
Tue 10:48:01 AM 40.4172 -103.8628 243° Southwest 398 458 19,000 -1,887 Descending Denver Center
Tue 10:49:03 AM 40.3631 -103.9889 241° Southwest 369 425 17,200 -1,258 Descending Denver Center
Tue 10:50:05 AM 40.2936 -104.0722 222° Southwest 339 390 16,400 -871 Descending Denver Center
Tue 10:51:07 AM 40.2211 -104.1519 220° Southwest 318 366 15,400 -726 Descending Denver Center
Tue 10:52:09 AM 40.1661 -104.1714 195° South 294 338 14,900 -774 Descending Denver Center
Tue 10:53:11 AM 40.0800 -104.1503 169° South 256 295 13,800 -919 Descending Denver Center
Tue 10:54:13 AM 40.0122 -104.1325 169° South 235 270 13,000 -484 Descending Denver Center
Tue 10:55:15 AM 39.9525 -104.1439 188° South 235 270 12,800 -823 Descending Denver Center
Tue 10:56:17 AM 39.9319 -104.2258 252° West 219 252 11,300 -968 Descending Denver Center
Tue 10:57:19 AM 39.9161 -104.3069 256° West 231 266 10,800 -1,016 Descending Denver Center
Tue 10:58:21 AM 39.8978 -104.3983 255° West 242 278 9,200 -1,548 Descending Denver Center
Tue 10:59:23 AM 39.8844 -104.4658 256° West 192 221 7,600 -1,306 Descending Denver Center
Tue 11:00:25 AM 39.8767 -104.5353 262° West 180 207 6,500 -864 Descending Denver Center
Tue 11:01:28 AM 39.8767 -104.5883 270° West 151 174 5,800 -576 Descending Denver Center
Tue 11:02:30 AM 39.8769 -104.6386 270° West 143 165 5,300 -484 Descending Denver Center
Tue 11:04:00 AM 39.8617 -104.6732 72° East  Level Estimated
Tue 11:11:00 AM 39.8617 -104.6732 180° South  Level Estimated
Tue 11:12:00 AM 39.8617 -104.6732 344° North  Level Estimated
Tue 11:13:00 AM 39.8617 -104.6732 159° South  Level Estimated

Login

Don't have an account? Register now (free) for customized features, flight alerts, and more!